Time;durP1;ratioP1;P1;durP2;ratioP2;P2;SDS_P1;SDS_P2;PMS_P1;PMS_P2;Temp;Humidity;BMP_temperature;BMP_pressure;BME280_temperature;BME280_humidity;BME280_pressure;Samples;Min_cycle;Max_cycle;Signal;HPM_P1;HPM_P2
2022/01/23 00:01:47;;;;;;;13.43;7.18;;;;;;;4.40;100.00;102617.38;5006793;28;20123;-84
2022/01/23 00:04:17;;;;;;;8.40;5.85;;;;;;;4.41;100.00;102615.69;4986514;28;20046;-85
2022/01/23 00:06:45;;;;;;;9.88;6.05;;;;;;;4.40;100.00;102614.78;4983508;28;20168;-86
2022/01/23 00:09:14;;;;;;;12.77;6.88;;;;;;;4.41;100.00;102608.78;4993626;28;20044;-85
2022/01/23 00:11:49;;;;;;;14.93;6.65;;;;;;;4.42;100.00;102615.75;4999216;28;20060;-86
2022/01/23 00:17:20;;;;;;;10.98;6.57;;;;;;;4.42;100.00;102620.03;4995646;28;20558;-86
2022/01/23 00:19:57;;;;;;;13.32;6.88;;;;;;;4.41;100.00;102613.97;4994964;28;20140;-85
2022/01/23 00:22:35;;;;;;;10.95;7.65;;;;;;;4.40;100.00;102613.91;5006500;28;20319;-86
2022/01/23 00:30:31;;;;;;;13.68;7.38;;;;;;;4.26;100.00;102608.94;4986991;28;21539;-85
2022/01/23 00:33:04;;;;;;;14.38;7.70;;;;;;;4.28;100.00;102611.59;4973487;28;20057;-86
2022/01/23 00:35:36;;;;;;;15.48;8.13;;;;;;;4.27;100.00;102609.81;4975173;28;20103;-86
2022/01/23 00:38:05;;;;;;;10.82;7.85;;;;;;;4.27;100.00;102613.28;4990102;28;20084;-85
2022/01/23 00:40:35;;;;;;;12.20;8.63;;;;;;;4.24;100.00;102612.28;4984133;28;20128;-85
2022/01/23 00:43:06;;;;;;;15.65;7.07;;;;;;;4.21;100.00;102617.28;4994180;28;20127;-85
2022/01/23 00:45:35;;;;;;;10.27;7.18;;;;;;;4.21;100.00;102618.19;4973536;28;20058;-86
2022/01/23 00:48:11;;;;;;;10.70;7.93;;;;;;;4.21;100.00;102615.59;4977198;28;20049;-86
2022/01/23 00:50:45;;;;;;;10.75;8.30;;;;;;;4.23;100.00;102623.44;4993560;28;20047;-85
2022/01/23 00:53:15;;;;;;;9.60;7.32;;;;;;;4.22;100.00;102609.59;4971132;28;20056;-85
2022/01/23 00:55:48;;;;;;;12.52;7.40;;;;;;;4.25;100.00;102617.53;4980332;28;20657;-84
2022/01/23 00:58:16;;;;;;;12.40;7.07;;;;;;;4.28;100.00;102619.38;4984813;28;20054;-85
2022/01/23 01:00:43;;;;;;;10.40;7.43;;;;;;;4.26;100.00;102619.31;4992524;28;20049;-85
2022/01/23 01:03:10;;;;;;;14.35;7.65;;;;;;;4.25;100.00;102608.84;4993012;28;20481;-85
2022/01/23 01:05:37;;;;;;;11.90;7.30;;;;;;;4.21;100.00;102610.41;4988631;28;20056;-87
2022/01/23 01:08:06;;;;;;;10.73;7.15;;;;;;;4.17;100.00;102600.69;4974017;28;20128;-86
2022/01/23 01:10:40;;;;;;;13.18;8.45;;;;;;;4.13;100.00;102599.69;4975397;28;20059;-86
2022/01/23 01:13:10;;;;;;;10.05;8.05;;;;;;;4.14;100.00;102604.03;4980203;28;20802;-85
2022/01/23 01:15:54;;;;;;;14.60;8.02;;;;;;;4.13;100.00;102610.03;4977151;28;20051;-86
2022/01/23 01:32:06;;;;;;;15.18;8.40;;;;;;;4.14;100.00;102631.66;5003431;28;20357;-85
2022/01/23 01:34:38;;;;;;;15.55;8.73;;;;;;;4.14;100.00;102631.66;5010095;28;20389;-85
2022/01/23 01:37:08;;;;;;;10.20;7.25;;;;;;;4.13;100.00;102629.88;4989264;28;20495;-86
2022/01/23 01:39:35;;;;;;;16.25;8.98;;;;;;;4.11;100.00;102624.63;5006785;28;21481;-85
2022/01/23 01:42:01;;;;;;;11.50;7.15;;;;;;;4.11;100.00;102628.94;4967306;28;20048;-86
2022/01/23 01:44:28;;;;;;;11.10;7.40;;;;;;;4.13;100.00;102627.28;5004890;28;20487;-86
2022/01/23 01:46:55;;;;;;;12.68;7.13;;;;;;;4.18;100.00;102637.91;4978118;28;20049;-85
2022/01/23 01:49:28;;;;;;;12.23;7.15;;;;;;;4.22;100.00;102632.03;4987226;28;20053;-86
2022/01/23 01:51:57;;;;;;;8.45;6.63;;;;;;;4.22;100.00;102642.41;4974963;28;20434;-85
2022/01/23 01:54:26;;;;;;;11.85;7.07;;;;;;;4.22;100.00;102634.63;4983561;28;20053;-85
2022/01/23 01:57:04;;;;;;;11.27;7.22;;;;;;;4.21;100.00;102635.44;4992401;28;20087;-85
2022/01/23 01:59:48;;;;;;;8.85;6.72;;;;;;;4.17;100.00;102634.38;5003336;28;20938;-85
2022/01/23 02:10:38;;;;;;;9.77;6.60;;;;;;;4.18;100.00;102640.47;5012964;28;20048;-85
2022/01/23 02:13:09;;;;;;;9.23;6.63;;;;;;;4.21;100.00;102640.63;4972850;28;20049;-85
2022/01/23 02:24:35;;;;;;;8.68;6.43;;;;;;;3.86;100.00;102631.97;4969634;28;20042;-84
2022/01/23 02:51:56;;;;;;;10.60;6.32;;;;;;;4.01;100.00;102644.84;4988806;28;20025;-86
2022/01/23 02:54:42;;;;;;;9.73;6.00;;;;;;;4.00;100.00;102640.44;4994271;28;20053;-86
2022/01/23 02:57:10;;;;;;;13.55;7.18;;;;;;;3.99;100.00;102642.16;5003256;28;20491;-85
2022/01/23 02:59:38;;;;;;;10.70;6.70;;;;;;;3.94;100.00;102633.28;4995160;28;20056;-85
2022/01/23 03:02:22;;;;;;;8.93;6.03;;;;;;;3.91;100.00;102626.22;5018382;28;20050;-83
2022/01/23 03:04:52;;;;;;;9.53;5.67;;;;;;;3.91;100.00;102630.50;4997492;28;20045;-86
2022/01/23 03:07:36;;;;;;;11.35;6.70;;;;;;;3.91;100.00;102627.91;4978646;28;20049;-86
2022/01/23 03:10:08;;;;;;;11.20;6.82;;;;;;;3.90;100.00;102627.03;5008622;28;20041;-84
2022/01/23 03:15:26;;;;;;;9.38;7.22;;;;;;;3.86;100.00;102629.38;4992845;28;20041;-89
2022/01/23 03:29:18;;;;;;;;;;;;;;;3.93;100.00;102647.91;4993206;28;20512;-84
2022/01/23 03:31:59;;;;;;;8.52;6.20;;;;;;;3.95;100.00;102640.22;4978071;28;20327;-85
2022/01/23 03:34:27;;;;;;;7.55;5.43;;;;;;;3.97;100.00;102638.59;4976938;28;20171;-85
2022/01/23 03:36:55;;;;;;;8.40;6.07;;;;;;;4.00;100.00;102635.28;4979505;28;20148;-85
2022/01/23 03:39:22;;;;;;;10.10;6.07;;;;;;;3.97;100.00;102636.88;4990189;28;20052;-85
2022/01/23 03:41:49;;;;;;;9.93;5.93;;;;;;;3.92;100.00;102630.56;4978055;28;20589;-85
2022/01/23 03:44:17;;;;;;;6.82;5.38;;;;;;;3.91;100.00;102631.41;4988075;28;20150;-84
2022/01/23 03:46:51;;;;;;;8.95;6.30;;;;;;;3.91;100.00;102627.91;4984676;28;20049;-85
2022/01/23 03:49:31;;;;;;;18.27;7.20;;;;;;;3.89;100.00;102626.97;5001931;28;20050;-84
2022/01/23 03:52:00;;;;;;;9.13;6.38;;;;;;;3.82;100.00;102636.13;5000009;28;20073;-84
2022/01/23 03:54:27;;;;;;;9.02;5.95;;;;;;;3.79;100.00;102629.09;4987510;28;20056;-84
2022/01/23 03:56:57;;;;;;;12.23;7.20;;;;;;;3.80;100.00;102632.56;4998829;28;20172;-84
2022/01/23 03:59:23;;;;;;;8.38;5.75;;;;;;;3.80;100.00;102633.44;4973054;28;20057;-84
2022/01/23 04:01:50;;;;;;;8.07;6.03;;;;;;;3.80;100.00;102633.44;5004335;28;20467;-84
2022/01/23 04:04:31;;;;;;;13.18;6.43;;;;;;;3.79;100.00;102634.28;4997823;28;20052;-86
2022/01/23 04:07:00;;;;;;;8.63;6.40;;;;;;;3.80;100.00;102640.34;5002807;28;20049;-85
2022/01/23 04:09:27;;;;;;;11.30;6.13;;;;;;;3.83;100.00;102642.19;4986936;28;20604;-86
2022/01/23 04:11:54;;;;;;;7.70;5.75;;;;;;;3.84;100.00;102643.97;4989901;28;20057;-85
2022/01/23 04:14:22;;;;;;;9.00;5.82;;;;;;;3.85;100.00;102632.81;4986655;28;20663;-85
2022/01/23 04:19:54;;;;;;;8.68;5.93;;;;;;;3.84;100.00;102634.50;4954729;28;20062;-85
2022/01/23 04:33:41;;;;;;;11.93;6.22;;;;;;;3.96;100.00;102649.75;4972626;28;20041;-84
2022/01/23 05:01:00;;;;;;;9.07;6.82;;;;;;;3.76;100.00;102653.94;4979604;28;20084;-85
2022/01/23 05:06:11;;;;;;;10.88;5.85;;;;;;;3.81;100.00;102666.31;4987697;28;20049;-84
2022/01/23 05:08:38;;;;;;;12.57;7.55;;;;;;;3.87;100.00;102675.22;4991893;28;20045;-84
2022/01/23 05:11:10;;;;;;;11.05;6.22;;;;;;;3.88;100.00;102675.28;5000978;28;20046;-87
2022/01/23 05:13:38;;;;;;;7.38;5.85;;;;;;;3.90;100.00;102676.28;4989774;28;20033;-86
2022/01/23 05:16:08;;;;;;;10.50;5.97;;;;;;;3.93;100.00;102678.13;4975692;28;20084;-85
2022/01/23 05:18:36;;;;;;;7.30;4.78;;;;;;;3.95;100.00;102667.03;4985589;28;20042;-83
2022/01/23 05:21:17;;;;;;;7.68;5.50;;;;;;;3.96;100.00;102667.91;4983632;28;20109;-84
2022/01/23 05:23:45;;;;;;;8.00;5.72;;;;;;;3.94;100.00;102678.19;4998240;28;20053;-86
2022/01/23 05:26:12;;;;;;;7.63;5.72;;;;;;;3.96;100.00;102671.41;4984650;28;20546;-86
2022/01/23 05:28:39;;;;;;;8.05;4.75;;;;;;;3.95;100.00;102672.22;4990124;28;20049;-84
2022/01/23 05:31:06;;;;;;;8.77;5.47;;;;;;;3.97;100.00;102685.25;4997851;28;20049;-83
2022/01/23 05:33:32;;;;;;;14.65;6.90;;;;;;;3.99;100.00;102673.25;5005588;28;20053;-85
2022/01/23 05:35:59;;;;;;;7.45;5.03;;;;;;;4.00;100.00;102682.78;4970760;28;20053;-87
2022/01/23 05:38:26;;;;;;;9.35;5.05;;;;;;;3.98;100.00;102672.34;4970900;28;20057;-85
2022/01/23 05:40:57;;;;;;;6.68;5.43;;;;;;;3.99;100.00;102681.03;4997219;28;20042;-85
2022/01/23 05:43:25;;;;;;;6.53;5.65;;;;;;;3.98;100.00;102687.03;4971529;28;21181;-86
2022/01/23 05:45:52;;;;;;;9.70;5.07;;;;;;;3.98;100.00;102674.94;5003936;28;20893;-85
2022/01/23 05:48:20;;;;;;;10.07;5.93;;;;;;;3.97;100.00;102667.09;4988681;28;20047;-85
2022/01/23 05:50:49;;;;;;;11.55;5.75;;;;;;;3.93;100.00;102683.31;4990515;28;20484;-85
2022/01/23 05:53:16;;;;;;;11.13;5.45;;;;;;;3.90;100.00;102680.56;4970276;28;20863;-86
2022/01/23 05:55:44;;;;;;;6.93;5.13;;;;;;;3.89;100.00;102689.16;4980561;28;21140;-85
2022/01/23 05:58:10;;;;;;;7.90;5.40;;;;;;;3.86;100.00;102689.88;4972992;28;20050;-85
2022/01/23 06:00:37;;;;;;;8.23;6.00;;;;;;;3.85;100.00;102682.91;4981242;28;20053;-85
2022/01/23 06:03:04;;;;;;;9.13;5.20;;;;;;;3.83;100.00;102686.25;5003485;28;20152;-86
2022/01/23 06:05:31;;;;;;;9.85;5.63;;;;;;;3.81;100.00;102696.53;4982573;28;20058;-86
2022/01/23 06:07:58;;;;;;;7.90;5.43;;;;;;;3.78;100.00;102694.66;4978973;28;20052;-86
2022/01/23 06:10:27;;;;;;;8.55;5.63;;;;;;;3.79;100.00;102699.03;4979625;28;21029;-86
2022/01/23 06:12:55;;;;;;;6.43;5.05;;;;;;;3.80;100.00;102702.50;4979245;28;20053;-86
2022/01/23 06:15:22;;;;;;;8.38;5.72;;;;;;;3.80;100.00;102703.38;4980369;28;20056;-87
2022/01/23 06:17:49;;;;;;;7.03;5.53;;;;;;;3.83;100.00;102701.78;4999102;28;20054;-86
2022/01/23 06:20:16;;;;;;;6.70;4.60;;;;;;;3.81;100.00;102702.59;4966575;28;20058;-85
2022/01/23 06:22:46;;;;;;;8.90;5.05;;;;;;;3.80;100.00;102702.50;4979561;28;20135;-85
2022/01/23 06:25:15;;;;;;;7.60;5.57;;;;;;;3.79;100.00;102698.13;4981852;28;20832;-85
2022/01/23 06:27:43;;;;;;;5.93;5.25;;;;;;;3.77;100.00;102703.25;4990992;28;20508;-85
2022/01/23 06:30:10;;;;;;;7.13;5.03;;;;;;;3.77;100.00;102712.72;4987659;28;20073;-86
2022/01/23 06:32:37;;;;;;;9.40;6.68;;;;;;;3.78;100.00;102717.06;4982716;28;20057;-88
2022/01/23 06:35:04;;;;;;;7.78;6.18;;;;;;;3.75;100.00;102712.63;5011197;28;20064;-85
2022/01/23 06:37:31;;;;;;;8.45;5.72;;;;;;;3.74;100.00;102717.72;4986979;28;20062;-84
2022/01/23 06:39:58;;;;;;;6.72;4.80;;;;;;;3.75;100.00;102712.63;4989060;28;20053;-84
2022/01/23 06:42:24;;;;;;;7.88;4.55;;;;;;;3.75;100.00;102717.81;5007857;28;20643;-83
2022/01/23 06:44:51;;;;;;;7.72;5.18;;;;;;;3.76;100.00;102721.31;4968281;28;20080;-86
2022/01/23 06:47:19;;;;;;;7.78;5.38;;;;;;;3.77;100.00;102720.50;4994864;28;20933;-84
2022/01/23 06:49:46;;;;;;;7.93;5.22;;;;;;;3.77;100.00;102721.38;4991898;28;20487;-84
2022/01/23 06:52:12;;;;;;;8.50;4.70;;;;;;;3.78;100.00;102732.63;4988680;28;20045;-84
2022/01/23 06:54:40;;;;;;;7.18;5.60;;;;;;;3.75;100.00;102732.47;4974251;28;20052;-85
2022/01/23 06:57:06;;;;;;;8.82;4.97;;;;;;;3.75;100.00;102732.47;4984454;28;20053;-85
2022/01/23 06:59:35;;;;;;;6.95;5.22;;;;;;;3.76;100.00;102731.66;4990267;28;20053;-84
2022/01/23 07:02:10;;;;;;;9.50;5.03;;;;;;;3.76;100.00;102729.06;4991382;28;20062;-86
2022/01/23 07:04:37;;;;;;;9.25;5.05;;;;;;;3.76;100.00;102724.78;4974739;28;21075;-84
2022/01/23 07:07:04;;;;;;;13.27;5.70;;;;;;;3.75;100.00;102722.97;4994155;28;20049;-87
2022/01/23 07:09:30;;;;;;;7.55;5.13;;;;;;;3.75;100.00;102727.28;5004738;28;20384;-85
2022/01/23 07:11:57;;;;;;;7.30;4.32;;;;;;;3.74;100.00;102729.00;5003637;28;20061;-85
2022/01/23 07:14:24;;;;;;;4.72;4.05;;;;;;;3.75;100.00;102730.75;4979418;28;20069;-86
2022/01/23 07:16:50;;;;;;;5.75;3.95;;;;;;;3.75;100.00;102741.13;4997725;28;20045;-84
2022/01/23 07:19:18;;;;;;;6.68;4.38;;;;;;;3.76;100.00;102744.63;4994316;28;20056;-85
2022/01/23 07:21:45;;;;;;;5.82;4.25;;;;;;;3.76;100.00;102747.22;4993632;28;20052;-86
2022/01/23 07:24:12;;;;;;;9.73;4.82;;;;;;;3.75;100.00;102745.41;5008806;28;20914;-84
2022/01/23 07:26:38;;;;;;;7.63;5.28;;;;;;;3.76;100.00;102740.31;5005143;28;20038;-84
2022/01/23 07:29:09;;;;;;;7.05;4.60;;;;;;;3.77;100.00;102741.22;4979630;28;20053;-84
2022/01/23 07:31:57;;;;;;;9.48;4.53;;;;;;;3.79;100.00;102743.09;4979320;28;20157;-83
2022/01/23 07:34:25;;;;;;;5.78;4.93;;;;;;;3.80;100.00;102752.63;4994191;28;20125;-85
2022/01/23 07:36:52;;;;;;;7.50;5.05;;;;;;;3.80;100.00;102747.44;4980185;28;20049;-84
2022/01/23 07:39:19;;;;;;;10.30;4.63;;;;;;;3.80;100.00;102746.56;5001791;28;20052;-87
2022/01/23 07:41:46;;;;;;;8.02;3.92;;;;;;;3.83;100.00;102749.28;4977736;28;20071;-84
2022/01/23 07:44:13;;;;;;;8.65;4.63;;;;;;;3.83;100.00;102743.22;5004838;28;20484;-85
2022/01/23 07:46:40;;;;;;;7.93;5.47;;;;;;;3.84;100.00;102747.63;5001609;28;20057;-85
2022/01/23 07:49:08;;;;;;;6.90;5.07;;;;;;;3.85;100.00;102754.59;4979405;28;20191;-85
2022/01/23 07:51:35;;;;;;;8.93;4.90;;;;;;;3.85;100.00;102757.19;4986518;28;20820;-85
2022/01/23 07:54:01;;;;;;;8.18;5.35;;;;;;;3.86;100.00;102759.84;4970428;28;20149;-84
2022/01/23 07:56:30;;;;;;;8.48;4.43;;;;;;;3.88;100.00;102765.09;4990260;28;20053;-87
2022/01/23 07:58:58;;;;;;;8.45;5.53;;;;;;;3.90;100.00;102761.78;4984282;28;20060;-85
2022/01/23 08:01:25;;;;;;;10.43;6.00;;;;;;;3.91;100.00;102765.25;5002546;28;20046;-84
2022/01/23 08:03:52;;;;;;;7.60;5.57;;;;;;;3.92;100.00;102773.09;4994699;28;20064;-84
2022/01/23 08:06:28;;;;;;;11.10;7.85;;;;;;;3.96;100.00;102771.56;5004801;28;20050;-84
2022/01/23 08:08:58;;;;;;;9.77;5.72;;;;;;;3.95;100.00;102770.69;4989942;28;20037;-83
2022/01/23 08:11:26;;;;;;;7.28;5.05;;;;;;;3.97;100.00;102774.22;4981153;28;20049;-85
2022/01/23 08:13:54;;;;;;;10.50;4.50;;;;;;;3.98;100.00;102778.59;4989523;28;20059;-84
2022/01/23 08:16:29;;;;;;;9.15;5.03;;;;;;;4.01;100.00;102777.88;5001395;28;20141;-85
2022/01/23 08:18:55;;;;;;;7.55;4.63;;;;;;;4.06;100.00;102783.31;4991939;28;20041;-85
2022/01/23 08:21:22;;;;;;;8.70;4.85;;;;;;;4.07;100.00;102783.38;4988327;28;20053;-85
2022/01/23 08:23:52;;;;;;;6.90;5.28;;;;;;;4.09;100.00;102788.66;5002166;28;20037;-85
2022/01/23 08:26:21;;;;;;;7.82;5.85;;;;;;;4.09;100.00;102792.16;5005800;28;20768;-85
2022/01/23 08:28:50;;;;;;;11.43;6.82;;;;;;;4.08;100.00;102795.53;4971577;28;20423;-84
2022/01/23 08:31:17;;;;;;;7.22;5.63;;;;;;;4.10;100.00;102793.91;4963237;28;20876;-84
2022/01/23 08:33:44;;;;;;;7.22;5.00;;;;;;;4.12;100.00;102807.84;4985779;28;20052;-84
2022/01/23 08:36:12;;;;;;;10.35;5.88;;;;;;;4.14;100.00;102806.22;4971352;28;20057;-84
2022/01/23 08:38:40;;;;;;;7.90;5.95;;;;;;;4.17;100.00;102809.78;4992403;28;21334;-85
2022/01/23 08:43:52;;;;;;;8.38;5.68;;;;;;;4.20;100.00;102817.72;5000774;28;20033;-86
2022/01/23 08:46:20;;;;;;;11.13;5.60;;;;;;;4.23;100.00;102825.66;4983589;28;20906;-85
2022/01/23 08:48:50;;;;;;;8.48;4.25;;;;;;;4.24;100.00;102825.75;4974082;28;21186;-85
2022/01/23 08:51:31;;;;;;;10.75;5.47;;;;;;;4.29;100.00;102823.41;4987759;28;20049;-85
2022/01/23 08:53:59;;;;;;;12.20;5.47;;;;;;;4.30;100.00;102813.09;4989964;28;20061;-88
2022/01/23 08:56:27;;;;;;;4.78;3.88;;;;;;;4.33;100.00;102809.78;4959708;28;20062;-86
2022/01/23 08:58:54;;;;;;;8.50;5.07;;;;;;;4.38;100.00;102823.88;4983841;28;20052;-84
2022/01/23 09:01:21;;;;;;;10.73;6.90;;;;;;;4.38;100.00;102817.78;4980866;28;20141;-87
2022/01/23 09:03:49;;;;;;;5.65;5.13;;;;;;;4.38;100.00;102818.69;5004961;28;20056;-85
2022/01/23 09:06:16;;;;;;;7.75;5.13;;;;;;;4.42;100.00;102818.03;4980100;28;20792;-85
2022/01/23 09:08:43;;;;;;;11.52;6.95;;;;;;;4.46;100.00;102816.50;4992126;28;20042;-85
2022/01/23 09:11:24;;;;;;;8.13;5.35;;;;;;;4.50;100.00;102820.09;4993466;28;20151;-85
2022/01/23 09:14:06;;;;;;;11.82;4.90;;;;;;;4.51;100.00;102817.63;4997107;28;20050;-86
2022/01/23 09:16:42;;;;;;;10.05;5.07;;;;;;;4.54;100.00;102811.69;5011934;28;21030;-86
2022/01/23 09:19:11;;;;;;;6.88;4.50;;;;;;;4.54;100.00;102827.25;4995333;28;20515;-86
2022/01/23 09:21:40;;;;;;;12.13;5.05;;;;;;;4.55;100.00;102819.53;4997683;28;20506;-84
2022/01/23 09:24:07;;;;;;;7.78;5.68;;;;;;;4.56;100.00;102817.84;4991698;28;20067;-86
2022/01/23 09:26:37;;;;;;;7.82;6.07;;;;;;;4.57;100.00;102820.50;5011456;28;20045;-85
2022/01/23 09:29:14;;;;;;;8.30;5.55;;;;;;;4.60;100.00;102823.28;4980321;28;20077;-87
2022/01/23 09:31:50;;;;;;;8.75;5.95;;;;;;;4.60;100.00;102817.16;5000553;28;20556;-87
2022/01/23 09:34:27;;;;;;;7.70;5.63;;;;;;;4.61;100.00;102818.94;5010034;28;20050;-86
2022/01/23 09:36:58;;;;;;;9.25;5.88;;;;;;;4.66;100.00;102819.19;4994807;28;20726;-86
2022/01/23 09:42:29;;;;;;;6.65;5.88;;;;;;;4.70;100.00;102823.72;4991560;28;20133;-86
2022/01/23 09:45:05;;;;;;;9.00;5.22;;;;;;;4.74;100.00;102831.72;4966326;28;20048;-87
2022/01/23 09:47:37;;;;;;;9.70;5.53;;;;;;;4.78;100.00;102815.53;4991596;28;20065;-84
2022/01/23 09:50:08;;;;;;;10.15;5.53;;;;;;;4.79;100.00;102822.47;4992743;28;20045;-86
2022/01/23 09:55:21;;;;;;;8.15;5.13;;;;;;;4.80;100.00;102816.47;4967116;28;20087;-86
2022/01/23 09:57:54;;;;;;;6.57;4.55;;;;;;;4.77;100.00;102810.22;4983333;28;20068;-87
2022/01/23 10:00:25;;;;;;;7.50;5.68;;;;;;;4.77;100.00;102820.59;4996110;28;20056;-85
2022/01/23 10:02:57;;;;;;;7.50;5.00;;;;;;;4.86;100.00;102812.41;4995977;28;20100;-85
2022/01/23 10:05:34;;;;;;;7.88;5.20;;;;;;;4.94;100.00;102816.25;4992336;28;20063;-84
2022/01/23 10:08:02;;;;;;;5.78;4.70;;;;;;;4.98;100.00;102813.00;4996024;28;20507;-85
2022/01/23 10:10:32;;;;;;;10.07;5.90;;;;;;;5.04;100.00;102820.19;4987998;28;20060;-84
2022/01/23 10:13:01;;;;;;;7.18;5.07;;;;;;;5.06;100.00;102827.25;4984326;28;20128;-85
2022/01/23 10:15:32;;;;;;;7.30;5.15;;;;;;;5.05;100.00;102825.47;5006839;28;20073;-86
2022/01/23 10:20:45;;;;;;;10.07;5.15;;;;;;;5.07;100.00;102836.81;4977275;28;20052;-86
2022/01/23 10:23:15;;;;;;;9.85;5.53;;;;;;;5.08;100.00;102832.50;4977401;28;20573;-88
2022/01/23 10:25:43;;;;;;;7.47;4.80;;;;;;;5.09;100.00;102835.19;5001033;28;20068;-86
2022/01/23 10:28:18;;;;;;;7.82;5.80;;;;;;;5.12;100.00;102835.34;5004564;28;20107;-87
2022/01/23 10:30:54;;;;;;;6.32;4.45;;;;;;;5.16;100.00;102830.28;4985107;28;20076;-86
2022/01/23 10:33:33;;;;;;;10.48;5.25;;;;;;;5.21;100.00;102828.81;5003402;28;20054;-86
2022/01/23 10:36:19;;;;;;;11.15;6.40;;;;;;;5.25;100.00;102826.44;4975318;28;20060;-86
2022/01/23 10:38:47;;;;;;;9.43;6.03;;;;;;;5.31;100.00;102825.84;4990118;28;20846;-87
2022/01/23 10:41:43;;;;;;;10.57;6.05;;;;;;;5.33;100.00;102824.19;4990315;28;20117;-87
2022/01/23 10:50:13;;;;;;;9.38;5.22;;;;;;;5.46;100.00;102836.06;4983747;28;20133;-87
2022/01/23 10:52:56;;;;;;;8.95;5.78;;;;;;;5.50;100.00;102837.09;4979615;28;20045;-87
2022/01/23 10:55:44;;;;;;;11.82;7.05;;;;;;;5.54;100.00;102837.31;5008791;28;20038;-86
2022/01/23 10:58:31;;;;;;;7.28;6.05;;;;;;;5.62;100.00;102840.28;5007554;28;20103;-86
2022/01/23 11:01:11;;;;;;;9.73;6.68;;;;;;;5.62;100.00;102842.88;4989544;28;20131;-87
2022/01/23 11:04:09;;;;;;;9.27;5.93;;;;;;;5.61;100.00;102836.78;5007394;28;20057;-87
2022/01/23 11:07:03;;;;;;;6.47;5.43;;;;;;;5.55;100.00;102839.06;4979910;28;20144;-86
2022/01/23 11:09:41;;;;;;;7.72;5.45;;;;;;;5.56;100.00;102838.25;4991707;28;20421;-88
2022/01/23 11:12:25;;;;;;;7.25;5.70;;;;;;;5.55;100.00;102839.06;4987434;28;20479;-86
2022/01/23 11:20:42;;;;;;;9.88;6.03;;;;;;;5.54;100.00;102824.34;5008728;28;20148;-85
2022/01/23 11:23:34;;;;;;;7.05;5.53;;;;;;;5.55;100.00;102825.22;4981616;28;20045;-85
2022/01/23 11:26:01;;;;;;;13.52;6.20;;;;;;;5.60;100.00;102831.50;5006041;28;20305;-86
2022/01/23 11:28:43;;;;;;;9.88;6.55;;;;;;;5.62;100.00;102822.09;5003320;28;20057;-84
2022/01/23 11:31:18;;;;;;;14.43;6.63;;;;;;;5.65;100.00;102827.41;4999042;28;20057;-86
2022/01/23 11:33:50;;;;;;;8.30;6.18;;;;;;;5.69;100.00;102823.25;5011780;28;20045;-83
2022/01/23 11:36:18;;;;;;;9.48;5.65;;;;;;;5.72;100.00;102818.19;4997789;28;20515;-88
2022/01/23 11:38:47;;;;;;;7.75;6.05;;;;;;;5.73;100.00;102819.97;4984178;28;23297;-85
2022/01/23 11:55:38;;;;;;;8.63;6.45;;;;;;;5.74;100.00;102812.25;4924091;28;20607;-86
2022/01/23 11:58:08;;;;;;;8.10;5.93;;;;;;;5.80;100.00;102811.63;4996512;28;20057;-85
2022/01/23 12:00:39;;;;;;;6.85;6.10;;;;;;;5.85;100.00;102817.06;4994408;28;20132;-86
2022/01/23 12:03:18;;;;;;;6.25;5.45;;;;;;;5.87;100.00;102813.69;4990606;28;20709;-87
2022/01/23 12:06:20;;;;;;;7.88;5.90;;;;;;;5.90;100.00;102813.81;4995928;28;20450;-83
2022/01/23 12:08:48;;;;;;;7.57;5.72;;;;;;;5.93;100.00;102815.69;5018260;28;20073;-86
2022/01/23 12:16:22;;;;;;;6.82;5.05;;;;;;;5.93;100.00;102814.00;5009522;28;20044;-87
2022/01/23 12:17:03;;;;;;;6.50;4.78;;;;;;;5.92;100.00;102807.00;5018762;28;20043;-87
2022/01/23 12:19:46;;;;;;;8.88;5.75;;;;;;;5.94;100.00;102813.16;4987552;28;20049;-87
2022/01/23 12:22:30;;;;;;;6.75;5.25;;;;;;;5.93;100.00;102802.69;4972881;28;20068;-87
2022/01/23 12:25:08;;;;;;;8.80;5.85;;;;;;;5.93;100.00;102801.00;5010791;28;20045;-86
2022/01/23 12:27:37;;;;;;;5.57;5.07;;;;;;;5.93;100.00;102801.00;4987318;28;20500;-85
2022/01/23 12:30:33;;;;;;;6.47;5.35;;;;;;;5.93;100.00;102792.28;5010083;28;20066;-86
2022/01/23 12:33:23;;;;;;;7.57;5.72;;;;;;;5.97;100.00;102799.38;4968887;28;20778;-85
2022/01/23 12:36:20;;;;;;;8.02;5.53;;;;;;;6.00;100.00;102806.47;4989375;28;20061;-85
2022/01/23 12:38:57;;;;;;;6.75;5.30;;;;;;;5.99;100.00;102799.53;5020740;28;20125;-88
2022/01/23 12:41:29;;;;;;;4.75;4.22;;;;;;;6.00;100.00;102799.56;4994309;28;20159;-85
2022/01/23 12:44:10;;;;;;;4.95;4.40;;;;;;;6.03;100.00;102801.44;5001638;28;20237;-86
2022/01/23 12:46:57;;;;;;;5.75;5.10;;;;;;;6.03;100.00;102801.44;5012350;28;20060;-84
2022/01/23 12:49:38;;;;;;;7.40;5.07;;;;;;;6.03;100.00;102799.69;4965398;28;20180;-84
2022/01/23 12:52:08;;;;;;;4.50;4.07;;;;;;;5.99;100.00;102797.78;4975942;28;20045;-84
2022/01/23 12:55:16;;;;;;;6.05;4.55;;;;;;;5.99;100.00;102803.00;4996959;28;20056;-86
2022/01/23 12:57:52;;;;;;;5.38;4.63;;;;;;;5.98;100.00;102798.59;4995649;28;20049;-83
2022/01/23 13:00:25;;;;;;;6.07;4.15;;;;;;;5.94;100.00;102794.06;4992146;28;20050;-84
2022/01/23 13:02:56;;;;;;;5.95;4.53;;;;;;;5.92;100.00;102788.81;4989623;28;20045;-82
2022/01/23 13:08:25;;;;;;;8.32;5.82;;;;;;;5.93;100.00;102787.09;4988666;28;20050;-85
2022/01/23 13:11:19;;;;;;;6.20;5.22;;;;;;;5.93;100.00;102787.09;4970336;28;20042;-85
2022/01/23 13:13:53;;;;;;;5.82;4.38;;;;;;;5.91;100.00;102781.81;5002124;28;20138;-84
2022/01/23 13:16:34;;;;;;;5.82;4.50;;;;;;;5.94;100.00;102791.47;5001772;28;20157;-83
2022/01/23 13:19:33;;;;;;;6.25;5.43;;;;;;;5.90;100.00;102787.84;4988268;28;20054;-86
2022/01/23 13:30:30;;;;;;;6.97;4.57;;;;;;;5.82;100.00;102785.72;4979866;28;20137;-83
2022/01/23 13:33:04;;;;;;;5.95;5.32;;;;;;;5.84;100.00;102795.38;4971210;28;20568;-85
2022/01/23 13:35:39;;;;;;;7.30;3.95;;;;;;;5.85;100.00;102793.66;4961752;28;20096;-85
2022/01/23 13:38:26;;;;;;;5.43;4.93;;;;;;;5.87;100.00;102798.09;4973902;28;20056;-84
2022/01/23 13:41:07;;;;;;;6.35;4.55;;;;;;;5.85;100.00;102798.84;4978943;28;20078;-81
2022/01/23 13:52:00;;;;;;;5.32;4.40;;;;;;;5.86;100.00;102795.44;4982259;28;20042;-85
2022/01/23 13:58:02;;;;;;;8.05;4.43;;;;;;;5.90;100.00;102792.16;4976120;28;20042;-85
2022/01/23 14:00:29;;;;;;;5.55;4.88;;;;;;;5.90;100.00;102789.56;4973608;28;20053;-83
2022/01/23 14:02:56;;;;;;;4.72;4.28;;;;;;;5.91;100.00;102794.81;4964257;28;20056;-82
2022/01/23 14:05:32;;;;;;;8.93;5.35;;;;;;;5.90;100.00;102795.63;4972606;28;20050;-83
2022/01/23 14:08:02;;;;;;;6.80;5.10;;;;;;;5.86;100.00;102793.72;4961628;28;20050;-82
2022/01/23 14:10:40;;;;;;;4.35;4.00;;;;;;;5.86;100.00;102795.44;4966006;28;20486;-82
2022/01/23 14:13:19;;;;;;;8.15;4.50;;;;;;;5.86;100.00;102801.53;4990724;28;20042;-83
2022/01/23 14:15:53;;;;;;;4.35;3.95;;;;;;;5.86;100.00;102790.25;4975094;28;20055;-85
2022/01/23 14:18:31;;;;;;;5.78;4.00;;;;;;;5.83;100.00;102793.59;4970532;28;20066;-85
2022/01/23 14:21:09;;;;;;;4.85;4.32;;;;;;;5.78;100.00;102797.69;4959508;28;20050;-83
2022/01/23 14:23:36;;;;;;;5.05;4.55;;;;;;;5.76;100.00;102792.44;4959658;28;20050;-85
2022/01/23 14:26:12;;;;;;;5.10;4.57;;;;;;;5.76;100.00;102792.44;4971335;28;20408;-84
2022/01/23 14:28:52;;;;;;;7.53;4.22;;;;;;;5.75;100.00;102797.53;4969948;28;20132;-84
2022/01/23 14:31:21;;;;;;;5.13;4.63;;;;;;;5.76;100.00;102804.53;4985719;28;20054;-82
2022/01/23 14:33:57;;;;;;;4.03;3.50;;;;;;;5.73;100.00;102797.47;5009343;28;20054;-82
2022/01/23 14:36:30;;;;;;;3.80;3.45;;;;;;;5.72;100.00;102802.59;4972141;28;23586;-84
2022/01/23 14:39:11;;;;;;;4.93;4.10;;;;;;;5.72;100.00;102798.31;4977383;28;20126;-84
2022/01/23 14:41:43;;;;;;;7.28;4.45;;;;;;;5.70;100.00;102805.13;4974686;28;20053;-84
2022/01/23 14:44:27;;;;;;;7.88;5.15;;;;;;;5.67;100.00;102804.09;4984370;28;20050;-84
2022/01/23 14:46:56;;;;;;;6.20;4.55;;;;;;;5.66;100.00;102798.03;5004255;28;20605;-82
2022/01/23 14:49:26;;;;;;;5.18;4.32;;;;;;;5.65;100.00;102798.84;5002601;28;20058;-83
2022/01/23 14:51:55;;;;;;;7.47;4.35;;;;;;;5.65;100.00;102800.56;4990191;28;20049;-81